sensor_id;sensor_type;location;lat;lon;timestamp;pressure;altitude;pressure_sealevel;temperature;humidity
11648;BME280;5880;52.342;9.662;2023-07-16T00:00:12;100277.97;;;27.03;45.53
11648;BME280;5880;52.342;9.662;2023-07-16T00:02:38;100272.94;;;26.96;45.45
11648;BME280;5880;52.342;9.662;2023-07-16T00:05:05;100287.09;;;27.00;45.43
11648;BME280;5880;52.342;9.662;2023-07-16T00:07:31;100289.44;;;26.98;45.30
11648;BME280;5880;52.342;9.662;2023-07-16T00:09:57;100295.72;;;26.94;45.41
11648;BME280;5880;52.342;9.662;2023-07-16T00:12:22;100288.00;;;26.91;45.72
11648;BME280;5880;52.342;9.662;2023-07-16T00:14:48;100282.75;;;26.90;45.57
11648;BME280;5880;52.342;9.662;2023-07-16T00:17:14;100258.56;;;26.85;45.37
11648;BME280;5880;52.342;9.662;2023-07-16T00:19:40;100234.88;;;26.83;45.39
11648;BME280;5880;52.342;9.662;2023-07-16T00:22:06;100228.44;;;26.82;45.36
11648;BME280;5880;52.342;9.662;2023-07-16T00:24:31;100236.84;;;26.82;45.58
11648;BME280;5880;52.342;9.662;2023-07-16T00:26:57;100236.38;;;26.80;45.80
11648;BME280;5880;52.342;9.662;2023-07-16T00:29:23;100242.38;;;26.79;45.53
11648;BME280;5880;52.342;9.662;2023-07-16T00:31:49;100235.56;;;26.80;45.74
11648;BME280;5880;52.342;9.662;2023-07-16T00:34:15;100211.06;;;26.77;45.74
11648;BME280;5880;52.342;9.662;2023-07-16T00:36:40;100196.69;;;26.78;45.55
11648;BME280;5880;52.342;9.662;2023-07-16T00:39:06;100197.84;;;26.77;45.61
11648;BME280;5880;52.342;9.662;2023-07-16T00:41:32;100234.28;;;26.77;45.85
11648;BME280;5880;52.342;9.662;2023-07-16T00:43:58;100271.44;;;26.74;45.68
11648;BME280;5880;52.342;9.662;2023-07-16T00:46:24;100274.94;;;26.71;45.68
11648;BME280;5880;52.342;9.662;2023-07-16T00:48:50;100275.78;;;26.71;45.71
11648;BME280;5880;52.342;9.662;2023-07-16T00:51:17;100263.97;;;26.66;46.01
11648;BME280;5880;52.342;9.662;2023-07-16T00:53:44;100256.81;;;26.68;45.97
11648;BME280;5880;52.342;9.662;2023-07-16T00:56:11;100261.16;;;26.66;45.98
11648;BME280;5880;52.342;9.662;2023-07-16T00:58:36;100274.34;;;26.65;45.92
11648;BME280;5880;52.342;9.662;2023-07-16T01:01:02;100288.72;;;26.64;46.31
11648;BME280;5880;52.342;9.662;2023-07-16T01:03:28;100307.84;;;26.62;46.39
11648;BME280;5880;52.342;9.662;2023-07-16T01:06:17;100313.13;;;26.63;46.06
11648;BME280;5880;52.342;9.662;2023-07-16T01:08:56;100316.63;;;26.60;46.10
11648;BME280;5880;52.342;9.662;2023-07-16T01:11:24;100307.38;;;26.60;46.46
11648;BME280;5880;52.342;9.662;2023-07-16T01:13:51;100296.53;;;26.58;46.24
11648;BME280;5880;52.342;9.662;2023-07-16T01:16:22;100286.47;;;26.57;46.24
11648;BME280;5880;52.342;9.662;2023-07-16T01:18:48;100282.06;;;26.56;46.22
11648;BME280;5880;52.342;9.662;2023-07-16T01:21:16;100278.44;;;26.56;46.10
11648;BME280;5880;52.342;9.662;2023-07-16T01:29:41;100328.59;;;26.48;46.28
11648;BME280;5880;52.342;9.662;2023-07-16T01:32:11;100322.53;;;26.46;46.16
11648;BME280;5880;52.342;9.662;2023-07-16T01:34:38;100324.03;;;26.44;46.20
11648;BME280;5880;52.342;9.662;2023-07-16T01:37:05;100330.13;;;26.46;46.15
11648;BME280;5880;52.342;9.662;2023-07-16T01:39:32;100318.78;;;26.42;46.22
11648;BME280;5880;52.342;9.662;2023-07-16T01:42:02;100313.97;;;26.43;46.21
11648;BME280;5880;52.342;9.662;2023-07-16T01:44:28;100303.00;;;26.38;46.10
11648;BME280;5880;52.342;9.662;2023-07-16T01:47:23;100307.56;;;26.42;45.92
11648;BME280;5880;52.342;9.662;2023-07-16T01:49:50;100294.94;;;26.36;46.25
11648;BME280;5880;52.342;9.662;2023-07-16T01:52:15;100295.06;;;26.40;46.08
11648;BME280;5880;52.342;9.662;2023-07-16T01:54:41;100292.97;;;26.37;46.04
11648;BME280;5880;52.342;9.662;2023-07-16T01:57:07;100298.56;;;26.37;46.13
11648;BME280;5880;52.342;9.662;2023-07-16T01:59:32;100299.88;;;26.39;46.31
11648;BME280;5880;52.342;9.662;2023-07-16T02:01:58;100295.06;;;26.40;46.39
11648;BME280;5880;52.342;9.662;2023-07-16T02:04:24;100283.38;;;26.38;46.01
11648;BME280;5880;52.342;9.662;2023-07-16T02:06:49;100289.81;;;26.38;46.04
11648;BME280;5880;52.342;9.662;2023-07-16T02:09:15;100287.38;;;26.37;46.35
11648;BME280;5880;52.342;9.662;2023-07-16T02:11:41;100286.09;;;26.34;46.31
11648;BME280;5880;52.342;9.662;2023-07-16T02:14:07;100293.31;;;26.35;46.37
11648;BME280;5880;52.342;9.662;2023-07-16T02:16:32;100302.88;;;26.34;46.42
11648;BME280;5880;52.342;9.662;2023-07-16T02:18:58;100306.84;;;26.33;46.34
11648;BME280;5880;52.342;9.662;2023-07-16T02:21:23;100314.44;;;26.32;46.17
11648;BME280;5880;52.342;9.662;2023-07-16T02:23:49;100311.84;;;26.27;46.31
11648;BME280;5880;52.342;9.662;2023-07-16T02:26:15;100319.56;;;26.30;46.25
11648;BME280;5880;52.342;9.662;2023-07-16T02:28:40;100317.94;;;26.29;46.47
11648;BME280;5880;52.342;9.662;2023-07-16T02:31:06;100322.22;;;26.27;46.04
11648;BME280;5880;52.342;9.662;2023-07-16T02:33:32;100315.47;;;26.28;46.59
11648;BME280;5880;52.342;9.662;2023-07-16T02:35:57;100311.84;;;26.27;46.55
11648;BME280;5880;52.342;9.662;2023-07-16T02:38:23;100324.22;;;26.26;46.35
11648;BME280;5880;52.342;9.662;2023-07-16T02:40:49;100321.28;;;26.23;46.38
11648;BME280;5880;52.342;9.662;2023-07-16T02:43:15;100320.47;;;26.22;46.39
11648;BME280;5880;52.342;9.662;2023-07-16T02:45:41;100304.34;;;26.19;46.29
11648;BME280;5880;52.342;9.662;2023-07-16T02:48:07;100316.03;;;26.21;46.39
11648;BME280;5880;52.342;9.662;2023-07-16T02:50:37;100310.75;;;26.20;46.32
11648;BME280;5880;52.342;9.662;2023-07-16T02:53:07;100323.94;;;26.19;46.43
11648;BME280;5880;52.342;9.662;2023-07-16T02:55:34;100329.06;;;26.17;46.18
11648;BME280;5880;52.342;9.662;2023-07-16T02:58:00;100329.78;;;26.14;46.39
11648;BME280;5880;52.342;9.662;2023-07-16T03:00:31;100338.50;;;26.13;46.02
11648;BME280;5880;52.342;9.662;2023-07-16T03:02:57;100336.28;;;26.06;46.33
11648;BME280;5880;52.342;9.662;2023-07-16T03:05:24;100348.16;;;26.03;46.43
11648;BME280;5880;52.342;9.662;2023-07-16T03:07:50;100350.00;;;25.99;46.08
11648;BME280;5880;52.342;9.662;2023-07-16T03:10:16;100346.28;;;25.95;46.23
11648;BME280;5880;52.342;9.662;2023-07-16T03:12:42;100345.78;;;25.93;46.15
11648;BME280;5880;52.342;9.662;2023-07-16T03:15:08;100343.69;;;25.89;46.39
11648;BME280;5880;52.342;9.662;2023-07-16T03:17:34;100349.63;;;25.88;46.59
11648;BME280;5880;52.342;9.662;2023-07-16T03:20:00;100343.34;;;25.82;46.36
11648;BME280;5880;52.342;9.662;2023-07-16T03:22:25;100354.69;;;25.86;46.61
11648;BME280;5880;52.342;9.662;2023-07-16T03:24:51;100352.59;;;25.83;46.53
11648;BME280;5880;52.342;9.662;2023-07-16T03:27:17;100352.31;;;25.76;46.50
11648;BME280;5880;52.342;9.662;2023-07-16T03:29:43;100367.94;;;25.77;46.46
11648;BME280;5880;52.342;9.662;2023-07-16T03:32:08;100367.84;;;25.73;46.32
11648;BME280;5880;52.342;9.662;2023-07-16T03:34:34;100372.59;;;25.73;46.56
11648;BME280;5880;52.342;9.662;2023-07-16T03:36:59;100371.50;;;25.65;46.34
11648;BME280;5880;52.342;9.662;2023-07-16T03:39:25;100389.91;;;25.66;46.38
11648;BME280;5880;52.342;9.662;2023-07-16T03:41:51;100395.06;;;25.64;46.68
11648;BME280;5880;52.342;9.662;2023-07-16T03:44:16;100387.31;;;25.61;46.83
11648;BME280;5880;52.342;9.662;2023-07-16T03:46:42;100395.22;;;25.59;46.47
11648;BME280;5880;52.342;9.662;2023-07-16T03:49:08;100391.81;;;25.53;46.47
11648;BME280;5880;52.342;9.662;2023-07-16T03:51:34;100399.88;;;25.55;46.65
11648;BME280;5880;52.342;9.662;2023-07-16T03:54:00;100411.88;;;25.55;46.42
11648;BME280;5880;52.342;9.662;2023-07-16T03:56:25;100406.97;;;25.52;47.11
11648;BME280;5880;52.342;9.662;2023-07-16T03:58:51;100414.53;;;25.52;46.67
11648;BME280;5880;52.342;9.662;2023-07-16T04:01:17;100421.63;;;25.49;46.65
11648;BME280;5880;52.342;9.662;2023-07-16T04:03:43;100423.94;;;25.47;46.69
11648;BME280;5880;52.342;9.662;2023-07-16T04:06:09;100419.84;;;25.44;46.56
11648;BME280;5880;52.342;9.662;2023-07-16T04:08:36;100419.72;;;25.41;47.10
11648;BME280;5880;52.342;9.662;2023-07-16T04:11:06;100423.50;;;25.36;47.08
11648;BME280;5880;52.342;9.662;2023-07-16T04:13:32;100426.97;;;25.33;47.08
11648;BME280;5880;52.342;9.662;2023-07-16T04:15:58;100426.03;;;25.29;46.81
11648;BME280;5880;52.342;9.662;2023-07-16T04:18:27;100430.31;;;25.26;47.18
11648;BME280;5880;52.342;9.662;2023-07-16T04:20:53;100427.69;;;25.21;47.11
11648;BME280;5880;52.342;9.662;2023-07-16T04:23:19;100434.25;;;25.25;47.05
11648;BME280;5880;52.342;9.662;2023-07-16T04:25:45;100442.63;;;25.25;47.09
11648;BME280;5880;52.342;9.662;2023-07-16T04:28:12;100451.03;;;25.25;47.22
11648;BME280;5880;52.342;9.662;2023-07-16T04:30:37;100457.44;;;25.26;47.24
11648;BME280;5880;52.342;9.662;2023-07-16T04:33:04;100450.22;;;25.25;47.20
11648;BME280;5880;52.342;9.662;2023-07-16T04:35:30;100452.34;;;25.28;47.52
11648;BME280;5880;52.342;9.662;2023-07-16T04:37:56;100462.03;;;25.31;47.60
11648;BME280;5880;52.342;9.662;2023-07-16T04:40:21;100469.59;;;25.30;47.55
11648;BME280;5880;52.342;9.662;2023-07-16T04:42:47;100470.97;;;25.24;47.16
11648;BME280;5880;52.342;9.662;2023-07-16T04:45:13;100477.69;;;25.23;47.41
11648;BME280;5880;52.342;9.662;2023-07-16T04:47:39;100483.78;;;25.25;47.63
11648;BME280;5880;52.342;9.662;2023-07-16T04:50:06;100486.09;;;25.23;47.45
11648;BME280;5880;52.342;9.662;2023-07-16T04:52:31;100492.97;;;25.25;47.91
11648;BME280;5880;52.342;9.662;2023-07-16T04:54:57;100496.59;;;25.26;47.79
11648;BME280;5880;52.342;9.662;2023-07-16T04:57:23;100498.09;;;25.23;47.86
11648;BME280;5880;52.342;9.662;2023-07-16T04:59:48;100502.84;;;25.23;47.49
11648;BME280;5880;52.342;9.662;2023-07-16T05:02:14;100499.56;;;25.21;48.01
11648;BME280;5880;52.342;9.662;2023-07-16T05:04:42;100497.94;;;25.20;48.11
11648;BME280;5880;52.342;9.662;2023-07-16T05:07:10;100494.97;;;25.25;48.26
11648;BME280;5880;52.342;9.662;2023-07-16T05:09:35;100499.22;;;25.31;48.33
11648;BME280;5880;52.342;9.662;2023-07-16T05:12:01;100505.13;;;25.38;48.33
11648;BME280;5880;52.342;9.662;2023-07-16T05:14:28;100505.91;;;25.47;48.63
11648;BME280;5880;52.342;9.662;2023-07-16T05:16:55;100508.31;;;25.58;48.65
11648;BME280;5880;52.342;9.662;2023-07-16T05:19:22;100509.41;;;25.65;48.36
11648;BME280;5880;52.342;9.662;2023-07-16T05:21:48;100512.50;;;25.73;48.44
11648;BME280;5880;52.342;9.662;2023-07-16T05:24:14;100525.47;;;25.86;48.45
11648;BME280;5880;52.342;9.662;2023-07-16T05:26:39;100524.28;;;25.96;48.11
11648;BME280;5880;52.342;9.662;2023-07-16T05:29:05;100520.94;;;26.02;48.09
11648;BME280;5880;52.342;9.662;2023-07-16T05:31:30;100524.84;;;26.10;47.92
11648;BME280;5880;52.342;9.662;2023-07-16T05:33:56;100530.22;;;26.15;48.09
11648;BME280;5880;52.342;9.662;2023-07-16T05:36:22;100533.47;;;26.26;47.92
11648;BME280;5880;52.342;9.662;2023-07-16T05:38:48;100536.22;;;26.35;47.90
11648;BME280;5880;52.342;9.662;2023-07-16T05:41:13;100545.00;;;26.45;48.15
11648;BME280;5880;52.342;9.662;2023-07-16T05:43:39;100539.53;;;26.58;47.90
11648;BME280;5880;52.342;9.662;2023-07-16T05:46:05;100539.69;;;26.73;48.22
11648;BME280;5880;52.342;9.662;2023-07-16T05:48:31;100539.06;;;26.89;48.30
11648;BME280;5880;52.342;9.662;2023-07-16T05:50:57;100544.97;;;27.08;47.94
11648;BME280;5880;52.342;9.662;2023-07-16T05:53:23;100541.16;;;27.25;48.06
11648;BME280;5880;52.342;9.662;2023-07-16T05:55:48;100546.59;;;27.43;47.62
11648;BME280;5880;52.342;9.662;2023-07-16T05:58:15;100541.94;;;27.59;47.64
11648;BME280;5880;52.342;9.662;2023-07-16T06:00:41;100553.78;;;27.77;47.12
11648;BME280;5880;52.342;9.662;2023-07-16T06:03:07;100547.94;;;27.94;46.98
11648;BME280;5880;52.342;9.662;2023-07-16T06:05:33;100550.63;;;28.15;46.70
11648;BME280;5880;52.342;9.662;2023-07-16T06:08:00;100552.66;;;28.43;46.87
11648;BME280;5880;52.342;9.662;2023-07-16T06:10:27;100556.09;;;28.77;46.75
11648;BME280;5880;52.342;9.662;2023-07-16T06:12:52;100558.88;;;29.17;46.42
11648;BME280;5880;52.342;9.662;2023-07-16T06:15:18;100558.84;;;29.77;46.28
11648;BME280;5880;52.342;9.662;2023-07-16T06:17:43;100558.84;;;30.44;45.66
11648;BME280;5880;52.342;9.662;2023-07-16T06:20:10;100564.25;;;31.11;45.25
11648;BME280;5880;52.342;9.662;2023-07-16T06:22:36;100562.69;;;31.80;44.48
11648;BME280;5880;52.342;9.662;2023-07-16T06:25:01;100572.22;;;32.48;44.00
11648;BME280;5880;52.342;9.662;2023-07-16T06:27:27;100569.88;;;33.17;43.57
11648;BME280;5880;52.342;9.662;2023-07-16T06:29:53;100570.94;;;33.88;42.19
11648;BME280;5880;52.342;9.662;2023-07-16T06:32:19;100575.13;;;34.04;39.87
11648;BME280;5880;52.342;9.662;2023-07-16T06:34:44;100569.38;;;33.94;38.99
11648;BME280;5880;52.342;9.662;2023-07-16T06:37:10;100569.28;;;33.83;38.62
11648;BME280;5880;52.342;9.662;2023-07-16T06:39:35;100565.66;;;33.82;39.26
11648;BME280;5880;52.342;9.662;2023-07-16T06:42:01;100575.59;;;34.10;38.84
11648;BME280;5880;52.342;9.662;2023-07-16T06:44:27;100567.25;;;34.35;38.31
11648;BME280;5880;52.342;9.662;2023-07-16T06:46:53;100572.69;;;34.62;37.92
11648;BME280;5880;52.342;9.662;2023-07-16T06:49:19;100574.00;;;34.86;37.59
11648;BME280;5880;52.342;9.662;2023-07-16T06:51:44;100575.75;;;35.19;37.39
11648;BME280;5880;52.342;9.662;2023-07-16T06:54:10;100577.88;;;35.65;37.35
11648;BME280;5880;52.342;9.662;2023-07-16T06:56:36;100576.66;;;35.88;36.74
11648;BME280;5880;52.342;9.662;2023-07-16T06:59:02;100583.53;;;36.08;35.57
11648;BME280;5880;52.342;9.662;2023-07-16T07:01:28;100580.72;;;35.90;34.36
11648;BME280;5880;52.342;9.662;2023-07-16T07:03:54;100581.47;;;35.37;33.45
11648;BME280;5880;52.342;9.662;2023-07-16T07:06:20;100583.38;;;34.97;34.00
11648;BME280;5880;52.342;9.662;2023-07-16T07:08:47;100586.41;;;34.60;32.81
11648;BME280;5880;52.342;9.662;2023-07-16T07:11:12;100592.97;;;34.09;33.10
11648;BME280;5880;52.342;9.662;2023-07-16T07:13:38;100604.28;;;33.57;32.90
11648;BME280;5880;52.342;9.662;2023-07-16T07:16:04;100605.31;;;33.04;32.78
11648;BME280;5880;52.342;9.662;2023-07-16T07:18:30;100611.09;;;32.54;32.61
11648;BME280;5880;52.342;9.662;2023-07-16T07:20:55;100608.38;;;32.08;32.72
11648;BME280;5880;52.342;9.662;2023-07-16T07:23:21;100603.19;;;31.64;33.05
11648;BME280;5880;52.342;9.662;2023-07-16T07:25:51;100610.00;;;31.40;33.05
11648;BME280;5880;52.342;9.662;2023-07-16T07:28:18;100614.00;;;31.20;33.87
11648;BME280;5880;52.342;9.662;2023-07-16T07:30:44;100612.03;;;31.01;33.57
11648;BME280;5880;52.342;9.662;2023-07-16T07:33:11;100609.19;;;30.81;33.64
11648;BME280;5880;52.342;9.662;2023-07-16T07:35:36;100619.91;;;30.56;33.11
11648;BME280;5880;52.342;9.662;2023-07-16T07:38:02;100603.63;;;30.30;33.63
11648;BME280;5880;52.342;9.662;2023-07-16T07:40:28;100596.53;;;30.04;33.79
11648;BME280;5880;52.342;9.662;2023-07-16T07:42:53;100608.53;;;29.85;33.69
11648;BME280;5880;52.342;9.662;2023-07-16T07:45:19;100607.72;;;29.69;34.05
11648;BME280;5880;52.342;9.662;2023-07-16T07:47:45;100613.16;;;29.62;33.61
11648;BME280;5880;52.342;9.662;2023-07-16T07:50:10;100616.84;;;29.50;33.58
11648;BME280;5880;52.342;9.662;2023-07-16T07:52:36;100624.28;;;29.42;33.69
11648;BME280;5880;52.342;9.662;2023-07-16T07:55:02;100618.56;;;29.39;34.02
11648;BME280;5880;52.342;9.662;2023-07-16T07:57:29;100615.63;;;29.35;33.39
11648;BME280;5880;52.342;9.662;2023-07-16T07:59:54;100614.97;;;29.26;33.26
11648;BME280;5880;52.342;9.662;2023-07-16T08:02:23;100610.69;;;29.16;33.42
11648;BME280;5880;52.342;9.662;2023-07-16T08:04:52;100618.66;;;29.14;33.47
11648;BME280;5880;52.342;9.662;2023-07-16T08:07:17;100621.41;;;29.11;32.99
11648;BME280;5880;52.342;9.662;2023-07-16T08:09:43;100620.44;;;29.07;33.23
11648;BME280;5880;52.342;9.662;2023-07-16T08:12:09;100614.94;;;28.98;32.95
11648;BME280;5880;52.342;9.662;2023-07-16T08:14:34;100618.75;;;28.90;33.13
11648;BME280;5880;52.342;9.662;2023-07-16T08:17:00;100618.63;;;28.86;32.74
11648;BME280;5880;52.342;9.662;2023-07-16T08:19:26;100621.97;;;28.76;32.75
11648;BME280;5880;52.342;9.662;2023-07-16T08:21:52;100618.81;;;28.65;32.85
11648;BME280;5880;52.342;9.662;2023-07-16T08:24:18;100611.34;;;28.57;33.04
11648;BME280;5880;52.342;9.662;2023-07-16T08:26:44;100635.59;;;28.49;32.68
11648;BME280;5880;52.342;9.662;2023-07-16T08:29:10;100613.47;;;28.35;32.77
11648;BME280;5880;52.342;9.662;2023-07-16T08:31:36;100621.75;;;28.32;32.64
11648;BME280;5880;52.342;9.662;2023-07-16T08:34:02;100616.63;;;28.22;32.50
11648;BME280;5880;52.342;9.662;2023-07-16T08:36:27;100607.13;;;28.14;32.73
11648;BME280;5880;52.342;9.662;2023-07-16T08:38:53;100604.22;;;28.10;32.90
11648;BME280;5880;52.342;9.662;2023-07-16T08:41:19;100621.56;;;28.12;32.74
11648;BME280;5880;52.342;9.662;2023-07-16T08:43:48;100612.41;;;28.15;32.90
11648;BME280;5880;52.342;9.662;2023-07-16T08:46:15;100602.22;;;28.11;33.06
11648;BME280;5880;52.342;9.662;2023-07-16T08:48:41;100613.13;;;28.25;32.90
11648;BME280;5880;52.342;9.662;2023-07-16T08:51:09;100605.72;;;28.32;32.88
11648;BME280;5880;52.342;9.662;2023-07-16T08:53:37;100609.34;;;28.33;32.83
11648;BME280;5880;52.342;9.662;2023-07-16T08:56:04;100629.72;;;28.42;32.99
11648;BME280;5880;52.342;9.662;2023-07-16T08:58:31;100615.91;;;28.49;33.10
11648;BME280;5880;52.342;9.662;2023-07-16T09:00:59;100617.78;;;28.57;32.85
11648;BME280;5880;52.342;9.662;2023-07-16T09:03:26;100608.53;;;28.57;32.67
11648;BME280;5880;52.342;9.662;2023-07-16T09:05:54;100617.78;;;28.57;32.68
11648;BME280;5880;52.342;9.662;2023-07-16T09:08:20;100615.78;;;28.58;32.79
11648;BME280;5880;52.342;9.662;2023-07-16T09:10:54;100619.19;;;28.64;32.81
11648;BME280;5880;52.342;9.662;2023-07-16T09:13:20;100621.28;;;28.67;32.96
11648;BME280;5880;52.342;9.662;2023-07-16T09:15:51;100617.03;;;28.73;32.93
11648;BME280;5880;52.342;9.662;2023-07-16T09:18:22;100623.56;;;28.77;32.99
11648;BME280;5880;52.342;9.662;2023-07-16T09:20:54;100613.59;;;28.79;32.79
11648;BME280;5880;52.342;9.662;2023-07-16T09:23:20;100621.81;;;28.85;33.11
11648;BME280;5880;52.342;9.662;2023-07-16T09:25:49;100621.91;;;28.88;32.85
11648;BME280;5880;52.342;9.662;2023-07-16T09:28:18;100642.63;;;28.96;33.00
11648;BME280;5880;52.342;9.662;2023-07-16T09:30:45;100627.75;;;28.95;32.53
11648;BME280;5880;52.342;9.662;2023-07-16T09:33:18;100624.22;;;28.98;32.76
11648;BME280;5880;52.342;9.662;2023-07-16T09:35:49;100635.84;;;28.97;32.20
11648;BME280;5880;52.342;9.662;2023-07-16T09:38:16;100621.66;;;28.93;32.49
11648;BME280;5880;52.342;9.662;2023-07-16T09:40:42;100636.53;;;28.94;32.44
11648;BME280;5880;52.342;9.662;2023-07-16T09:43:12;100632.56;;;28.95;32.54
11648;BME280;5880;52.342;9.662;2023-07-16T09:45:38;100629.63;;;28.91;31.94
11648;BME280;5880;52.342;9.662;2023-07-16T09:48:05;100645.44;;;28.96;32.13
11648;BME280;5880;52.342;9.662;2023-07-16T09:50:34;100637.84;;;28.96;31.99
11648;BME280;5880;52.342;9.662;2023-07-16T09:53:03;100638.25;;;28.98;31.88
11648;BME280;5880;52.342;9.662;2023-07-16T09:55:33;100645.63;;;29.03;32.37
11648;BME280;5880;52.342;9.662;2023-07-16T09:58:07;100645.88;;;29.10;32.70
11648;BME280;5880;52.342;9.662;2023-07-16T10:00:36;100652.63;;;29.21;32.50
11648;BME280;5880;52.342;9.662;2023-07-16T10:03:05;100657.31;;;29.30;32.43
11648;BME280;5880;52.342;9.662;2023-07-16T10:05:31;100650.13;;;29.32;32.82
11648;BME280;5880;52.342;9.662;2023-07-16T10:07:58;100660.88;;;29.42;32.89
11648;BME280;5880;52.342;9.662;2023-07-16T10:10:40;100658.63;;;29.48;32.59
11648;BME280;5880;52.342;9.662;2023-07-16T10:13:07;100649.72;;;29.46;32.56
11648;BME280;5880;52.342;9.662;2023-07-16T10:15:34;100665.88;;;29.49;32.30
11648;BME280;5880;52.342;9.662;2023-07-16T10:18:00;100650.19;;;29.48;32.19
11648;BME280;5880;52.342;9.662;2023-07-16T10:20:34;100661.91;;;29.50;31.77
11648;BME280;5880;52.342;9.662;2023-07-16T10:23:18;100667.06;;;29.48;31.98
11648;BME280;5880;52.342;9.662;2023-07-16T10:26:01;100664.72;;;29.50;31.99
11648;BME280;5880;52.342;9.662;2023-07-16T10:28:37;100670.78;;;29.52;32.27
11648;BME280;5880;52.342;9.662;2023-07-16T10:31:04;100681.22;;;29.52;32.33
11648;BME280;5880;52.342;9.662;2023-07-16T10:33:29;100674.88;;;29.55;32.10
11648;BME280;5880;52.342;9.662;2023-07-16T10:35:57;100664.91;;;29.57;31.50
11648;BME280;5880;52.342;9.662;2023-07-16T10:38:26;100669.34;;;29.58;31.54
11648;BME280;5880;52.342;9.662;2023-07-16T10:40:52;100670.63;;;29.61;31.51
11648;BME280;5880;52.342;9.662;2023-07-16T10:43:18;100670.63;;;29.61;31.39
11648;BME280;5880;52.342;9.662;2023-07-16T10:45:44;100675.09;;;29.62;31.17
11648;BME280;5880;52.342;9.662;2023-07-16T10:48:12;100690.44;;;29.64;31.60
11648;BME280;5880;52.342;9.662;2023-07-16T10:50:38;100693.59;;;29.63;30.89
11648;BME280;5880;52.342;9.662;2023-07-16T10:53:04;100685.31;;;29.54;30.99
11648;BME280;5880;52.342;9.662;2023-07-16T10:55:30;100690.47;;;29.52;30.87
11648;BME280;5880;52.342;9.662;2023-07-16T10:57:58;100692.13;;;29.53;31.04
11648;BME280;5880;52.342;9.662;2023-07-16T11:00:24;100703.88;;;29.55;30.68
11648;BME280;5880;52.342;9.662;2023-07-16T11:02:51;100691.41;;;29.56;30.63
11648;BME280;5880;52.342;9.662;2023-07-16T11:05:19;100698.44;;;29.62;31.31
11648;BME280;5880;52.342;9.662;2023-07-16T11:07:46;100701.94;;;29.72;31.31
11648;BME280;5880;52.342;9.662;2023-07-16T11:10:15;100685.56;;;29.77;30.67
11648;BME280;5880;52.342;9.662;2023-07-16T11:12:42;100694.47;;;29.79;30.67
11648;BME280;5880;52.342;9.662;2023-07-16T11:15:08;100681.59;;;29.78;30.34
11648;BME280;5880;52.342;9.662;2023-07-16T11:17:37;100682.03;;;29.80;30.65
11648;BME280;5880;52.342;9.662;2023-07-16T11:20:03;100684.22;;;29.87;30.35
11648;BME280;5880;52.342;9.662;2023-07-16T11:22:32;100693.13;;;29.89;30.47
11648;BME280;5880;52.342;9.662;2023-07-16T11:24:58;100697.94;;;29.88;30.50
11648;BME280;5880;52.342;9.662;2023-07-16T11:27:27;100704.97;;;29.95;30.09
11648;BME280;5880;52.342;9.662;2023-07-16T11:29:55;100693.69;;;29.95;30.45
11648;BME280;5880;52.342;9.662;2023-07-16T11:32:41;100694.97;;;29.97;30.25
11648;BME280;5880;52.342;9.662;2023-07-16T11:35:08;100694.50;;;29.95;30.03
11648;BME280;5880;52.342;9.662;2023-07-16T11:37:36;100697.78;;;29.97;29.41
11648;BME280;5880;52.342;9.662;2023-07-16T11:40:05;100694.22;;;30.00;29.49
11648;BME280;5880;52.342;9.662;2023-07-16T11:42:38;100693.94;;;30.05;29.85
11648;BME280;5880;52.342;9.662;2023-07-16T11:45:15;100699.25;;;30.07;29.55
11648;BME280;5880;52.342;9.662;2023-07-16T11:47:41;100704.75;;;30.03;29.71
11648;BME280;5880;52.342;9.662;2023-07-16T11:50:07;100688.31;;;30.05;29.66
11648;BME280;5880;52.342;9.662;2023-07-16T11:52:33;100698.16;;;30.12;30.07
11648;BME280;5880;52.342;9.662;2023-07-16T11:54:59;100694.78;;;30.22;30.00
11648;BME280;5880;52.342;9.662;2023-07-16T11:57:25;100699.00;;;30.28;29.44
11648;BME280;5880;52.342;9.662;2023-07-16T11:59:51;100704.50;;;30.24;29.82
11648;BME280;5880;52.342;9.662;2023-07-16T12:02:17;100696.97;;;30.28;29.63
11648;BME280;5880;52.342;9.662;2023-07-16T12:04:43;100705.09;;;30.30;29.72
11648;BME280;5880;52.342;9.662;2023-07-16T12:07:09;100699.00;;;30.28;29.15
11648;BME280;5880;52.342;9.662;2023-07-16T12:09:35;100705.44;;;30.28;29.48
11648;BME280;5880;52.342;9.662;2023-07-16T12:12:01;100717.06;;;30.27;29.70
11648;BME280;5880;52.342;9.662;2023-07-16T12:14:27;100702.63;;;30.28;29.83
11648;BME280;5880;52.342;9.662;2023-07-16T12:16:52;100707.97;;;30.34;29.19
11648;BME280;5880;52.342;9.662;2023-07-16T12:19:18;100704.00;;;30.35;29.10
11648;BME280;5880;52.342;9.662;2023-07-16T12:21:44;100701.81;;;30.28;29.20
11648;BME280;5880;52.342;9.662;2023-07-16T12:24:11;100705.09;;;30.30;29.62
11648;BME280;5880;52.342;9.662;2023-07-16T12:26:37;100705.97;;;30.34;29.46
11648;BME280;5880;52.342;9.662;2023-07-16T12:29:03;100708.53;;;30.39;29.16
11648;BME280;5880;52.342;9.662;2023-07-16T12:31:30;100707.88;;;30.46;29.57
11648;BME280;5880;52.342;9.662;2023-07-16T12:34:00;100716.44;;;30.49;29.06
11648;BME280;5880;52.342;9.662;2023-07-16T12:36:30;100720.34;;;30.45;28.99
11648;BME280;5880;52.342;9.662;2023-07-16T12:38:56;100721.09;;;30.42;29.39
11648;BME280;5880;52.342;9.662;2023-07-16T12:41:21;100718.25;;;30.42;29.68
11648;BME280;5880;52.342;9.662;2023-07-16T12:43:47;100719.44;;;30.41;29.57
11648;BME280;5880;52.342;9.662;2023-07-16T12:46:13;100721.53;;;30.44;29.31
11648;BME280;5880;52.342;9.662;2023-07-16T12:48:39;100715.91;;;30.44;29.45
11648;BME280;5880;52.342;9.662;2023-07-16T12:51:04;100718.78;;;30.47;29.47
11648;BME280;5880;52.342;9.662;2023-07-16T12:53:30;100723.63;;;30.47;29.66
11648;BME280;5880;52.342;9.662;2023-07-16T12:55:55;100729.44;;;30.54;29.74
11648;BME280;5880;52.342;9.662;2023-07-16T12:58:21;100732.78;;;30.60;29.62
11648;BME280;5880;52.342;9.662;2023-07-16T13:00:47;100725.22;;;30.64;29.54
11648;BME280;5880;52.342;9.662;2023-07-16T13:03:13;100725.56;;;30.62;29.44